logo
Search for airport 
image banner adimage banner adimage banner ad
image banner ad

UASS - Semey

Located in Semey, Kazakhstan

ICAO - UASS, IATA - PLX

Data provided by Airmate  

General information

Coordinates: N50°21'6" E80°14'2"
Elevation is 759 feet MSL.
Magnetic variation is 7° East
View others Airports in East Kazakhstan

Operational data

Special qualification required
Current time UTC:
Current local time:
Weather
METAR: UASS 261230Z 03003MPS CAVOK 11/02 Q1023 NOSIG RMK QFE746/0995
TAF: TAF UASS 261100Z 2612/2621 04005MPS 9999 SCT100 TEMPO 2614/2621 09003MPS
View NOTAMs / SUP AIP / TFR affecting this airport [VIEW]
Communications frequencies: [VIEW]

Runways:

RWY identifierQFULength (ft)Width (ft)SurfaceLDA (ft)
0884°10167148CONC10167
26264°10167148CONC8947

Airport contact information

Address: Semey Kazakhstan

Satellite view of UASS